sensor_id;sensor_type;location;lat;lon;timestamp;P1;durP1;ratioP1;P2;durP2;ratioP2
51618;SDS011;38518;53.164;5.430;2024-02-23T00:00:10;7.97;;;2.85;;
51618;SDS011;38518;53.164;5.430;2024-02-23T00:02:37;10.20;;;2.88;;
51618;SDS011;38518;53.164;5.430;2024-02-23T00:05:03;7.80;;;2.78;;
51618;SDS011;38518;53.164;5.430;2024-02-23T00:07:29;6.40;;;2.50;;
51618;SDS011;38518;53.164;5.430;2024-02-23T00:09:55;8.88;;;3.13;;
51618;SDS011;38518;53.164;5.430;2024-02-23T00:12:21;10.23;;;3.50;;
51618;SDS011;38518;53.164;5.430;2024-02-23T00:14:46;11.40;;;3.47;;
51618;SDS011;38518;53.164;5.430;2024-02-23T00:17:13;17.35;;;4.88;;
51618;SDS011;38518;53.164;5.430;2024-02-23T00:19:38;12.43;;;3.75;;
51618;SDS011;38518;53.164;5.430;2024-02-23T00:22:04;14.85;;;3.97;;
51618;SDS011;38518;53.164;5.430;2024-02-23T00:24:30;15.00;;;4.47;;
51618;SDS011;38518;53.164;5.430;2024-02-23T00:26:56;17.10;;;4.18;;
51618;SDS011;38518;53.164;5.430;2024-02-23T00:29:22;15.15;;;4.22;;
51618;SDS011;38518;53.164;5.430;2024-02-23T00:31:48;16.98;;;4.22;;
51618;SDS011;38518;53.164;5.430;2024-02-23T00:34:14;13.95;;;4.03;;
51618;SDS011;38518;53.164;5.430;2024-02-23T00:36:42;21.15;;;5.35;;
51618;SDS011;38518;53.164;5.430;2024-02-23T00:39:09;21.40;;;6.00;;
51618;SDS011;38518;53.164;5.430;2024-02-23T00:41:35;24.10;;;5.00;;
51618;SDS011;38518;53.164;5.430;2024-02-23T00:44:04;19.15;;;4.82;;
51618;SDS011;38518;53.164;5.430;2024-02-23T00:46:31;19.60;;;4.30;;
51618;SDS011;38518;53.164;5.430;2024-02-23T00:48:56;19.88;;;4.53;;
51618;SDS011;38518;53.164;5.430;2024-02-23T00:51:22;16.67;;;4.00;;
51618;SDS011;38518;53.164;5.430;2024-02-23T00:53:48;15.30;;;4.20;;
51618;SDS011;38518;53.164;5.430;2024-02-23T00:56:14;19.50;;;5.03;;
51618;SDS011;38518;53.164;5.430;2024-02-23T00:58:40;18.40;;;3.72;;
51618;SDS011;38518;53.164;5.430;2024-02-23T01:01:05;22.15;;;5.90;;
51618;SDS011;38518;53.164;5.430;2024-02-23T01:03:31;13.80;;;4.18;;
51618;SDS011;38518;53.164;5.430;2024-02-23T01:05:57;18.77;;;3.88;;
51618;SDS011;38518;53.164;5.430;2024-02-23T01:08:23;16.15;;;4.13;;
51618;SDS011;38518;53.164;5.430;2024-02-23T01:10:49;18.63;;;3.80;;
51618;SDS011;38518;53.164;5.430;2024-02-23T01:13:14;17.27;;;5.65;;
51618;SDS011;38518;53.164;5.430;2024-02-23T01:15:41;19.23;;;3.97;;
51618;SDS011;38518;53.164;5.430;2024-02-23T01:18:07;11.70;;;3.58;;
51618;SDS011;38518;53.164;5.430;2024-02-23T01:20:33;16.73;;;5.43;;
51618;SDS011;38518;53.164;5.430;2024-02-23T01:22:59;13.18;;;3.75;;
51618;SDS011;38518;53.164;5.430;2024-02-23T01:25:25;20.58;;;3.80;;
51618;SDS011;38518;53.164;5.430;2024-02-23T01:27:51;17.73;;;4.15;;
51618;SDS011;38518;53.164;5.430;2024-02-23T01:30:17;17.42;;;3.95;;
51618;SDS011;38518;53.164;5.430;2024-02-23T01:32:44;13.70;;;3.63;;
51618;SDS011;38518;53.164;5.430;2024-02-23T01:35:10;11.18;;;3.55;;
51618;SDS011;38518;53.164;5.430;2024-02-23T01:37:36;12.13;;;3.60;;
51618;SDS011;38518;53.164;5.430;2024-02-23T01:40:02;14.63;;;4.50;;
51618;SDS011;38518;53.164;5.430;2024-02-23T01:42:28;12.25;;;3.45;;
51618;SDS011;38518;53.164;5.430;2024-02-23T01:44:54;12.68;;;3.70;;
51618;SDS011;38518;53.164;5.430;2024-02-23T01:47:26;15.27;;;4.40;;
51618;SDS011;38518;53.164;5.430;2024-02-23T01:49:53;20.02;;;4.32;;
51618;SDS011;38518;53.164;5.430;2024-02-23T01:52:19;18.10;;;4.68;;
51618;SDS011;38518;53.164;5.430;2024-02-23T01:54:45;10.10;;;3.63;;
51618;SDS011;38518;53.164;5.430;2024-02-23T01:57:11;15.50;;;4.72;;
51618;SDS011;38518;53.164;5.430;2024-02-23T01:59:38;13.52;;;3.45;;
51618;SDS011;38518;53.164;5.430;2024-02-23T02:02:04;11.52;;;3.75;;
51618;SDS011;38518;53.164;5.430;2024-02-23T02:04:30;12.45;;;4.32;;
51618;SDS011;38518;53.164;5.430;2024-02-23T02:06:56;11.55;;;4.35;;
51618;SDS011;38518;53.164;5.430;2024-02-23T02:09:24;11.68;;;3.47;;
51618;SDS011;38518;53.164;5.430;2024-02-23T02:11:50;12.40;;;3.35;;
51618;SDS011;38518;53.164;5.430;2024-02-23T02:14:16;9.50;;;3.83;;
51618;SDS011;38518;53.164;5.430;2024-02-23T02:16:42;11.65;;;3.42;;
51618;SDS011;38518;53.164;5.430;2024-02-23T02:19:09;10.40;;;3.63;;
51618;SDS011;38518;53.164;5.430;2024-02-23T02:21:35;11.55;;;3.00;;
51618;SDS011;38518;53.164;5.430;2024-02-23T02:24:02;16.85;;;3.65;;
51618;SDS011;38518;53.164;5.430;2024-02-23T02:26:28;13.65;;;3.53;;
51618;SDS011;38518;53.164;5.430;2024-02-23T02:28:55;11.95;;;3.78;;
51618;SDS011;38518;53.164;5.430;2024-02-23T02:31:21;11.15;;;3.47;;
51618;SDS011;38518;53.164;5.430;2024-02-23T02:33:46;11.27;;;3.55;;
51618;SDS011;38518;53.164;5.430;2024-02-23T02:36:12;14.88;;;3.95;;
51618;SDS011;38518;53.164;5.430;2024-02-23T02:38:38;11.27;;;3.30;;
51618;SDS011;38518;53.164;5.430;2024-02-23T02:41:04;11.43;;;3.53;;
51618;SDS011;38518;53.164;5.430;2024-02-23T02:43:30;13.93;;;4.13;;
51618;SDS011;38518;53.164;5.430;2024-02-23T02:45:56;11.30;;;3.08;;
51618;SDS011;38518;53.164;5.430;2024-02-23T02:48:22;7.97;;;2.70;;
51618;SDS011;38518;53.164;5.430;2024-02-23T02:50:49;16.88;;;4.40;;
51618;SDS011;38518;53.164;5.430;2024-02-23T02:53:15;12.40;;;3.20;;
51618;SDS011;38518;53.164;5.430;2024-02-23T02:55:41;9.98;;;3.35;;
51618;SDS011;38518;53.164;5.430;2024-02-23T02:58:08;14.65;;;3.53;;
51618;SDS011;38518;53.164;5.430;2024-02-23T03:00:34;25.83;;;4.35;;
51618;SDS011;38518;53.164;5.430;2024-02-23T03:03:00;13.52;;;3.70;;
51618;SDS011;38518;53.164;5.430;2024-02-23T03:05:25;12.02;;;3.63;;
51618;SDS011;38518;53.164;5.430;2024-02-23T03:07:51;11.52;;;3.33;;
51618;SDS011;38518;53.164;5.430;2024-02-23T03:10:17;9.98;;;3.15;;
51618;SDS011;38518;53.164;5.430;2024-02-23T03:12:43;10.48;;;3.15;;
51618;SDS011;38518;53.164;5.430;2024-02-23T03:15:09;8.50;;;2.35;;
51618;SDS011;38518;53.164;5.430;2024-02-23T03:17:37;15.95;;;3.55;;
51618;SDS011;38518;53.164;5.430;2024-02-23T03:20:03;13.15;;;3.40;;
51618;SDS011;38518;53.164;5.430;2024-02-23T03:22:36;13.10;;;3.28;;
51618;SDS011;38518;53.164;5.430;2024-02-23T03:25:03;15.48;;;4.35;;
51618;SDS011;38518;53.164;5.430;2024-02-23T03:27:33;15.50;;;4.28;;
51618;SDS011;38518;53.164;5.430;2024-02-23T03:30:04;13.15;;;3.50;;
51618;SDS011;38518;53.164;5.430;2024-02-23T03:32:33;16.98;;;3.45;;
51618;SDS011;38518;53.164;5.430;2024-02-23T03:35:05;7.82;;;2.40;;
51618;SDS011;38518;53.164;5.430;2024-02-23T03:37:31;12.27;;;4.15;;
51618;SDS011;38518;53.164;5.430;2024-02-23T03:39:57;9.85;;;2.83;;
51618;SDS011;38518;53.164;5.430;2024-02-23T03:42:24;9.20;;;2.60;;
51618;SDS011;38518;53.164;5.430;2024-02-23T03:44:50;9.52;;;2.60;;
51618;SDS011;38518;53.164;5.430;2024-02-23T03:47:16;10.05;;;2.80;;
51618;SDS011;38518;53.164;5.430;2024-02-23T03:49:42;12.70;;;3.28;;
51618;SDS011;38518;53.164;5.430;2024-02-23T03:52:08;10.07;;;2.97;;
51618;SDS011;38518;53.164;5.430;2024-02-23T03:54:33;11.93;;;3.72;;
51618;SDS011;38518;53.164;5.430;2024-02-23T03:56:59;9.60;;;2.92;;
51618;SDS011;38518;53.164;5.430;2024-02-23T03:59:25;11.05;;;3.65;;
51618;SDS011;38518;53.164;5.430;2024-02-23T04:01:50;11.80;;;3.47;;
51618;SDS011;38518;53.164;5.430;2024-02-23T04:04:17;8.68;;;3.58;;
51618;SDS011;38518;53.164;5.430;2024-02-23T04:06:42;8.23;;;2.75;;
51618;SDS011;38518;53.164;5.430;2024-02-23T04:09:08;10.18;;;3.15;;
51618;SDS011;38518;53.164;5.430;2024-02-23T04:11:34;10.35;;;3.03;;
51618;SDS011;38518;53.164;5.430;2024-02-23T04:14:00;11.32;;;3.42;;
51618;SDS011;38518;53.164;5.430;2024-02-23T04:16:26;14.35;;;2.80;;
51618;SDS011;38518;53.164;5.430;2024-02-23T04:18:55;13.23;;;3.70;;
51618;SDS011;38518;53.164;5.430;2024-02-23T04:21:21;9.20;;;2.95;;
51618;SDS011;38518;53.164;5.430;2024-02-23T04:23:47;9.50;;;2.53;;
51618;SDS011;38518;53.164;5.430;2024-02-23T04:26:13;9.77;;;3.10;;
51618;SDS011;38518;53.164;5.430;2024-02-23T04:28:39;17.58;;;4.45;;
51618;SDS011;38518;53.164;5.430;2024-02-23T04:31:06;15.20;;;3.10;;
51618;SDS011;38518;53.164;5.430;2024-02-23T04:33:34;10.68;;;3.47;;
51618;SDS011;38518;53.164;5.430;2024-02-23T04:36:00;12.70;;;3.50;;
51618;SDS011;38518;53.164;5.430;2024-02-23T04:38:26;8.38;;;3.13;;
51618;SDS011;38518;53.164;5.430;2024-02-23T04:40:52;6.18;;;2.50;;
51618;SDS011;38518;53.164;5.430;2024-02-23T04:43:17;10.93;;;3.15;;
51618;SDS011;38518;53.164;5.430;2024-02-23T04:45:43;13.68;;;2.83;;
51618;SDS011;38518;53.164;5.430;2024-02-23T04:48:09;14.50;;;3.97;;
51618;SDS011;38518;53.164;5.430;2024-02-23T04:50:35;13.75;;;3.17;;
51618;SDS011;38518;53.164;5.430;2024-02-23T04:53:00;10.38;;;2.97;;
51618;SDS011;38518;53.164;5.430;2024-02-23T04:55:26;13.27;;;3.78;;
51618;SDS011;38518;53.164;5.430;2024-02-23T04:57:52;16.55;;;3.40;;
51618;SDS011;38518;53.164;5.430;2024-02-23T05:00:18;13.70;;;3.92;;
51618;SDS011;38518;53.164;5.430;2024-02-23T05:02:45;12.38;;;3.13;;
51618;SDS011;38518;53.164;5.430;2024-02-23T05:05:11;13.85;;;2.88;;
51618;SDS011;38518;53.164;5.430;2024-02-23T05:07:37;11.45;;;2.90;;
51618;SDS011;38518;53.164;5.430;2024-02-23T05:10:03;12.13;;;3.42;;
51618;SDS011;38518;53.164;5.430;2024-02-23T05:12:29;12.05;;;3.83;;
51618;SDS011;38518;53.164;5.430;2024-02-23T05:14:55;6.80;;;2.95;;
51618;SDS011;38518;53.164;5.430;2024-02-23T05:17:21;18.63;;;3.08;;
51618;SDS011;38518;53.164;5.430;2024-02-23T05:19:46;7.15;;;2.63;;
51618;SDS011;38518;53.164;5.430;2024-02-23T05:22:12;10.68;;;3.17;;
51618;SDS011;38518;53.164;5.430;2024-02-23T05:24:38;10.70;;;2.72;;
51618;SDS011;38518;53.164;5.430;2024-02-23T05:27:04;12.32;;;3.55;;
51618;SDS011;38518;53.164;5.430;2024-02-23T05:29:30;12.07;;;2.90;;
51618;SDS011;38518;53.164;5.430;2024-02-23T05:31:55;8.35;;;2.40;;
51618;SDS011;38518;53.164;5.430;2024-02-23T05:34:21;8.00;;;2.42;;
51618;SDS011;38518;53.164;5.430;2024-02-23T05:36:47;13.40;;;3.28;;
51618;SDS011;38518;53.164;5.430;2024-02-23T05:39:13;12.05;;;3.97;;
51618;SDS011;38518;53.164;5.430;2024-02-23T05:41:40;9.80;;;2.60;;
51618;SDS011;38518;53.164;5.430;2024-02-23T05:44:07;15.15;;;3.22;;
51618;SDS011;38518;53.164;5.430;2024-02-23T05:46:33;14.07;;;3.80;;
51618;SDS011;38518;53.164;5.430;2024-02-23T05:48:59;10.77;;;2.72;;
51618;SDS011;38518;53.164;5.430;2024-02-23T05:51:26;17.02;;;4.53;;
51618;SDS011;38518;53.164;5.430;2024-02-23T05:53:54;13.95;;;3.53;;
51618;SDS011;38518;53.164;5.430;2024-02-23T05:56:20;14.05;;;3.15;;
51618;SDS011;38518;53.164;5.430;2024-02-23T05:58:45;6.07;;;2.58;;
51618;SDS011;38518;53.164;5.430;2024-02-23T06:01:11;11.90;;;2.88;;
51618;SDS011;38518;53.164;5.430;2024-02-23T06:03:37;12.32;;;4.43;;
51618;SDS011;38518;53.164;5.430;2024-02-23T06:06:06;10.45;;;2.95;;
51618;SDS011;38518;53.164;5.430;2024-02-23T06:08:33;14.68;;;3.35;;
51618;SDS011;38518;53.164;5.430;2024-02-23T06:10:59;9.38;;;2.40;;
51618;SDS011;38518;53.164;5.430;2024-02-23T06:13:25;11.55;;;4.63;;
51618;SDS011;38518;53.164;5.430;2024-02-23T06:15:51;9.38;;;2.85;;
51618;SDS011;38518;53.164;5.430;2024-02-23T06:18:17;12.63;;;2.88;;
51618;SDS011;38518;53.164;5.430;2024-02-23T06:20:42;14.70;;;4.18;;
51618;SDS011;38518;53.164;5.430;2024-02-23T06:23:08;13.77;;;3.38;;
51618;SDS011;38518;53.164;5.430;2024-02-23T06:25:34;18.52;;;3.50;;
51618;SDS011;38518;53.164;5.430;2024-02-23T06:27:59;14.70;;;3.22;;
51618;SDS011;38518;53.164;5.430;2024-02-23T06:30:25;8.82;;;2.80;;
51618;SDS011;38518;53.164;5.430;2024-02-23T06:32:51;15.15;;;2.95;;
51618;SDS011;38518;53.164;5.430;2024-02-23T06:35:17;10.82;;;2.58;;
51618;SDS011;38518;53.164;5.430;2024-02-23T06:37:43;13.65;;;3.38;;
51618;SDS011;38518;53.164;5.430;2024-02-23T06:40:09;12.88;;;4.65;;
51618;SDS011;38518;53.164;5.430;2024-02-23T06:42:35;10.23;;;3.42;;
51618;SDS011;38518;53.164;5.430;2024-02-23T06:45:01;10.20;;;4.38;;
51618;SDS011;38518;53.164;5.430;2024-02-23T06:47:27;9.10;;;4.00;;
51618;SDS011;38518;53.164;5.430;2024-02-23T06:49:52;16.52;;;4.70;;
51618;SDS011;38518;53.164;5.430;2024-02-23T06:52:18;11.60;;;4.53;;
51618;SDS011;38518;53.164;5.430;2024-02-23T06:54:44;17.75;;;5.90;;
51618;SDS011;38518;53.164;5.430;2024-02-23T06:57:10;12.40;;;4.63;;
51618;SDS011;38518;53.164;5.430;2024-02-23T06:59:36;10.73;;;3.85;;
51618;SDS011;38518;53.164;5.430;2024-02-23T07:02:01;15.23;;;4.70;;
51618;SDS011;38518;53.164;5.430;2024-02-23T07:04:29;16.20;;;4.90;;
51618;SDS011;38518;53.164;5.430;2024-02-23T07:06:55;8.93;;;3.75;;
51618;SDS011;38518;53.164;5.430;2024-02-23T07:09:20;12.43;;;2.75;;
51618;SDS011;38518;53.164;5.430;2024-02-23T07:11:46;15.40;;;3.20;;
51618;SDS011;38518;53.164;5.430;2024-02-23T07:14:12;11.60;;;4.00;;
51618;SDS011;38518;53.164;5.430;2024-02-23T07:16:39;7.32;;;3.10;;
51618;SDS011;38518;53.164;5.430;2024-02-23T07:19:06;7.97;;;2.63;;
51618;SDS011;38518;53.164;5.430;2024-02-23T07:21:32;6.07;;;2.35;;
51618;SDS011;38518;53.164;5.430;2024-02-23T07:23:59;6.57;;;2.20;;
51618;SDS011;38518;53.164;5.430;2024-02-23T07:26:25;5.80;;;2.78;;
51618;SDS011;38518;53.164;5.430;2024-02-23T07:28:53;9.90;;;2.40;;
51618;SDS011;38518;53.164;5.430;2024-02-23T07:31:19;9.05;;;2.03;;
51618;SDS011;38518;53.164;5.430;2024-02-23T07:33:45;6.32;;;2.38;;
51618;SDS011;38518;53.164;5.430;2024-02-23T07:36:14;6.82;;;2.58;;
51618;SDS011;38518;53.164;5.430;2024-02-23T07:38:40;3.80;;;2.00;;
51618;SDS011;38518;53.164;5.430;2024-02-23T07:41:06;4.72;;;2.50;;
51618;SDS011;38518;53.164;5.430;2024-02-23T07:43:32;5.78;;;2.33;;
51618;SDS011;38518;53.164;5.430;2024-02-23T07:45:58;7.90;;;2.20;;
51618;SDS011;38518;53.164;5.430;2024-02-23T07:48:23;7.35;;;2.90;;
51618;SDS011;38518;53.164;5.430;2024-02-23T07:50:49;6.13;;;2.63;;
51618;SDS011;38518;53.164;5.430;2024-02-23T07:53:15;7.40;;;3.40;;
51618;SDS011;38518;53.164;5.430;2024-02-23T07:55:40;9.20;;;3.42;;
51618;SDS011;38518;53.164;5.430;2024-02-23T07:58:06;7.70;;;3.47;;
51618;SDS011;38518;53.164;5.430;2024-02-23T08:00:32;6.38;;;3.55;;
51618;SDS011;38518;53.164;5.430;2024-02-23T08:02:59;6.32;;;4.15;;
51618;SDS011;38518;53.164;5.430;2024-02-23T08:05:25;6.90;;;4.03;;
51618;SDS011;38518;53.164;5.430;2024-02-23T08:07:51;7.05;;;3.20;;
51618;SDS011;38518;53.164;5.430;2024-02-23T08:10:16;7.95;;;4.30;;
51618;SDS011;38518;53.164;5.430;2024-02-23T08:12:42;9.32;;;4.03;;
51618;SDS011;38518;53.164;5.430;2024-02-23T08:15:08;9.60;;;5.43;;
51618;SDS011;38518;53.164;5.430;2024-02-23T08:17:34;7.25;;;4.43;;
51618;SDS011;38518;53.164;5.430;2024-02-23T08:20:00;7.72;;;5.45;;
51618;SDS011;38518;53.164;5.430;2024-02-23T08:22:26;10.20;;;5.63;;
51618;SDS011;38518;53.164;5.430;2024-02-23T08:24:51;9.63;;;6.07;;
51618;SDS011;38518;53.164;5.430;2024-02-23T08:27:17;9.38;;;5.20;;
51618;SDS011;38518;53.164;5.430;2024-02-23T08:29:43;9.85;;;5.40;;
51618;SDS011;38518;53.164;5.430;2024-02-23T08:32:09;10.98;;;5.60;;
51618;SDS011;38518;53.164;5.430;2024-02-23T08:34:34;9.27;;;6.38;;
51618;SDS011;38518;53.164;5.430;2024-02-23T08:37:00;13.82;;;5.85;;
51618;SDS011;38518;53.164;5.430;2024-02-23T08:39:26;11.02;;;6.28;;
51618;SDS011;38518;53.164;5.430;2024-02-23T08:41:54;10.95;;;5.68;;
51618;SDS011;38518;53.164;5.430;2024-02-23T08:44:20;10.48;;;6.80;;
51618;SDS011;38518;53.164;5.430;2024-02-23T08:46:46;9.20;;;5.80;;
51618;SDS011;38518;53.164;5.430;2024-02-23T08:49:13;11.05;;;6.78;;
51618;SDS011;38518;53.164;5.430;2024-02-23T08:51:39;11.63;;;6.35;;
51618;SDS011;38518;53.164;5.430;2024-02-23T08:54:05;11.57;;;6.38;;
51618;SDS011;38518;53.164;5.430;2024-02-23T08:56:36;8.15;;;5.65;;
51618;SDS011;38518;53.164;5.430;2024-02-23T08:59:04;12.32;;;7.18;;
51618;SDS011;38518;53.164;5.430;2024-02-23T09:01:30;10.15;;;5.82;;
51618;SDS011;38518;53.164;5.430;2024-02-23T09:03:55;9.18;;;5.35;;
51618;SDS011;38518;53.164;5.430;2024-02-23T09:06:21;8.43;;;5.70;;
51618;SDS011;38518;53.164;5.430;2024-02-23T09:08:47;11.40;;;6.65;;
51618;SDS011;38518;53.164;5.430;2024-02-23T09:11:12;8.70;;;6.20;;
51618;SDS011;38518;53.164;5.430;2024-02-23T09:13:40;8.68;;;5.88;;
51618;SDS011;38518;53.164;5.430;2024-02-23T09:16:07;9.25;;;5.25;;
51618;SDS011;38518;53.164;5.430;2024-02-23T09:18:34;7.45;;;4.63;;
51618;SDS011;38518;53.164;5.430;2024-02-23T09:21:00;6.57;;;4.60;;
51618;SDS011;38518;53.164;5.430;2024-02-23T09:23:26;7.57;;;4.50;;
51618;SDS011;38518;53.164;5.430;2024-02-23T09:25:52;9.80;;;4.45;;
51618;SDS011;38518;53.164;5.430;2024-02-23T09:28:18;7.28;;;5.07;;
51618;SDS011;38518;53.164;5.430;2024-02-23T09:30:44;6.72;;;3.55;;
51618;SDS011;38518;53.164;5.430;2024-02-23T09:33:09;7.10;;;3.60;;
51618;SDS011;38518;53.164;5.430;2024-02-23T09:35:35;8.38;;;4.53;;
51618;SDS011;38518;53.164;5.430;2024-02-23T09:38:01;6.82;;;3.60;;
51618;SDS011;38518;53.164;5.430;2024-02-23T09:40:27;3.85;;;3.08;;
51618;SDS011;38518;53.164;5.430;2024-02-23T09:42:57;4.80;;;3.90;;
51618;SDS011;38518;53.164;5.430;2024-02-23T09:45:24;5.13;;;3.67;;
51618;SDS011;38518;53.164;5.430;2024-02-23T09:47:52;3.33;;;2.83;;
51618;SDS011;38518;53.164;5.430;2024-02-23T09:50:20;3.40;;;3.10;;
51618;SDS011;38518;53.164;5.430;2024-02-23T09:52:48;5.50;;;4.13;;
51618;SDS011;38518;53.164;5.430;2024-02-23T09:55:18;5.70;;;3.83;;
51618;SDS011;38518;53.164;5.430;2024-02-23T09:57:47;6.00;;;4.40;;
51618;SDS011;38518;53.164;5.430;2024-02-23T10:00:15;8.23;;;4.28;;
51618;SDS011;38518;53.164;5.430;2024-02-23T10:02:42;8.73;;;5.35;;
51618;SDS011;38518;53.164;5.430;2024-02-23T10:05:10;5.93;;;3.78;;
51618;SDS011;38518;53.164;5.430;2024-02-23T10:07:37;8.13;;;4.75;;
51618;SDS011;38518;53.164;5.430;2024-02-23T10:10:06;10.45;;;3.95;;
51618;SDS011;38518;53.164;5.430;2024-02-23T10:12:33;6.78;;;4.20;;
51618;SDS011;38518;53.164;5.430;2024-02-23T10:15:00;6.90;;;3.72;;
51618;SDS011;38518;53.164;5.430;2024-02-23T10:17:29;6.45;;;3.67;;
51618;SDS011;38518;53.164;5.430;2024-02-23T10:19:55;7.57;;;4.22;;
51618;SDS011;38518;53.164;5.430;2024-02-23T10:22:22;4.45;;;3.40;;
51618;SDS011;38518;53.164;5.430;2024-02-23T10:24:50;5.53;;;3.83;;
51618;SDS011;38518;53.164;5.430;2024-02-23T10:27:16;6.22;;;3.70;;
51618;SDS011;38518;53.164;5.430;2024-02-23T10:29:42;7.47;;;4.75;;
51618;SDS011;38518;53.164;5.430;2024-02-23T10:32:09;6.63;;;3.67;;
51618;SDS011;38518;53.164;5.430;2024-02-23T10:34:39;6.50;;;3.63;;
51618;SDS011;38518;53.164;5.430;2024-02-23T10:37:08;4.10;;;3.10;;
51618;SDS011;38518;53.164;5.430;2024-02-23T10:39:36;7.03;;;3.30;;
51618;SDS011;38518;53.164;5.430;2024-02-23T10:42:03;4.57;;;3.45;;
51618;SDS011;38518;53.164;5.430;2024-02-23T10:44:30;6.07;;;3.83;;
51618;SDS011;38518;53.164;5.430;2024-02-23T10:46:57;5.38;;;3.88;;
51618;SDS011;38518;53.164;5.430;2024-02-23T10:49:27;6.93;;;4.35;;
51618;SDS011;38518;53.164;5.430;2024-02-23T10:51:53;5.88;;;3.78;;
51618;SDS011;38518;53.164;5.430;2024-02-23T10:54:20;5.72;;;4.60;;
51618;SDS011;38518;53.164;5.430;2024-02-23T10:56:47;6.18;;;4.05;;
51618;SDS011;38518;53.164;5.430;2024-02-23T10:59:14;7.43;;;4.40;;
51618;SDS011;38518;53.164;5.430;2024-02-23T11:01:46;6.05;;;4.22;;
51618;SDS011;38518;53.164;5.430;2024-02-23T11:04:17;6.40;;;4.53;;
51618;SDS011;38518;53.164;5.430;2024-02-23T11:06:49;10.70;;;4.10;;
51618;SDS011;38518;53.164;5.430;2024-02-23T11:09:15;7.72;;;4.57;;
51618;SDS011;38518;53.164;5.430;2024-02-23T11:11:50;8.05;;;5.15;;
51618;SDS011;38518;53.164;5.430;2024-02-23T11:14:29;6.93;;;5.07;;
51618;SDS011;38518;53.164;5.430;2024-02-23T11:16:57;12.32;;;5.22;;
51618;SDS011;38518;53.164;5.430;2024-02-23T11:19:31;7.60;;;5.28;;
51618;SDS011;38518;53.164;5.430;2024-02-23T11:22:01;12.65;;;6.90;;
51618;SDS011;38518;53.164;5.430;2024-02-23T11:24:31;11.32;;;6.63;;
51618;SDS011;38518;53.164;5.430;2024-02-23T11:27:00;11.95;;;6.55;;
51618;SDS011;38518;53.164;5.430;2024-02-23T11:29:33;7.97;;;6.20;;
51618;SDS011;38518;53.164;5.430;2024-02-23T11:32:01;16.20;;;6.75;;
51618;SDS011;38518;53.164;5.430;2024-02-23T11:34:29;14.40;;;5.47;;
51618;SDS011;38518;53.164;5.430;2024-02-23T11:36:55;11.68;;;5.93;;
51618;SDS011;38518;53.164;5.430;2024-02-23T11:39:22;12.68;;;5.95;;
51618;SDS011;38518;53.164;5.430;2024-02-23T11:41:49;12.70;;;6.47;;
51618;SDS011;38518;53.164;5.430;2024-02-23T11:44:15;10.07;;;5.20;;
51618;SDS011;38518;53.164;5.430;2024-02-23T11:46:46;13.27;;;5.68;;
51618;SDS011;38518;53.164;5.430;2024-02-23T11:49:13;8.48;;;3.88;;
51618;SDS011;38518;53.164;5.430;2024-02-23T11:51:41;11.30;;;5.05;;
51618;SDS011;38518;53.164;5.430;2024-02-23T11:54:07;8.25;;;4.32;;
51618;SDS011;38518;53.164;5.430;2024-02-23T11:56:34;6.50;;;3.83;;
51618;SDS011;38518;53.164;5.430;2024-02-23T11:58:59;14.07;;;4.03;;
51618;SDS011;38518;53.164;5.430;2024-02-23T12:01:28;10.35;;;3.38;;
51618;SDS011;38518;53.164;5.430;2024-02-23T12:03:55;7.93;;;3.72;;
51618;SDS011;38518;53.164;5.430;2024-02-23T12:06:21;9.55;;;3.08;;
51618;SDS011;38518;53.164;5.430;2024-02-23T12:08:47;11.43;;;3.88;;
51618;SDS011;38518;53.164;5.430;2024-02-23T12:11:14;7.53;;;3.42;;
51618;SDS011;38518;53.164;5.430;2024-02-23T12:13:41;10.35;;;3.97;;
51618;SDS011;38518;53.164;5.430;2024-02-23T12:16:07;10.98;;;4.20;;
51618;SDS011;38518;53.164;5.430;2024-02-23T12:18:35;10.27;;;3.88;;
51618;SDS011;38518;53.164;5.430;2024-02-23T12:21:02;10.70;;;3.60;;
51618;SDS011;38518;53.164;5.430;2024-02-23T12:23:40;15.40;;;3.80;;
51618;SDS011;38518;53.164;5.430;2024-02-23T12:26:07;10.57;;;3.53;;
51618;SDS011;38518;53.164;5.430;2024-02-23T12:28:34;10.50;;;3.15;;
51618;SDS011;38518;53.164;5.430;2024-02-23T12:31:00;10.75;;;3.13;;
51618;SDS011;38518;53.164;5.430;2024-02-23T12:33:27;8.10;;;2.67;;
51618;SDS011;38518;53.164;5.430;2024-02-23T12:35:54;7.88;;;2.60;;
51618;SDS011;38518;53.164;5.430;2024-02-23T12:38:23;10.45;;;3.53;;
51618;SDS011;38518;53.164;5.430;2024-02-23T12:40:50;5.82;;;2.65;;
51618;SDS011;38518;53.164;5.430;2024-02-23T12:43:16;9.63;;;3.45;;
51618;SDS011;38518;53.164;5.430;2024-02-23T12:45:42;9.85;;;3.50;;
51618;SDS011;38518;53.164;5.430;2024-02-23T12:48:10;12.18;;;3.17;;
51618;SDS011;38518;53.164;5.430;2024-02-23T12:50:36;11.88;;;3.50;;
51618;SDS011;38518;53.164;5.430;2024-02-23T12:53:02;9.07;;;2.63;;
51618;SDS011;38518;53.164;5.430;2024-02-23T12:55:28;12.20;;;3.95;;
51618;SDS011;38518;53.164;5.430;2024-02-23T12:57:54;8.10;;;2.75;;
51618;SDS011;38518;53.164;5.430;2024-02-23T13:00:20;9.15;;;3.03;;
51618;SDS011;38518;53.164;5.430;2024-02-23T13:02:46;15.38;;;3.35;;
51618;SDS011;38518;53.164;5.430;2024-02-23T13:05:12;11.93;;;2.80;;
51618;SDS011;38518;53.164;5.430;2024-02-23T13:07:38;8.75;;;2.35;;
51618;SDS011;38518;53.164;5.430;2024-02-23T13:10:05;6.22;;;1.95;;
51618;SDS011;38518;53.164;5.430;2024-02-23T13:12:32;9.48;;;2.58;;
51618;SDS011;38518;53.164;5.430;2024-02-23T13:14:58;10.75;;;3.40;;
51618;SDS011;38518;53.164;5.430;2024-02-23T13:17:24;11.45;;;2.83;;
51618;SDS011;38518;53.164;5.430;2024-02-23T13:19:50;12.52;;;3.38;;
51618;SDS011;38518;53.164;5.430;2024-02-23T13:22:16;11.80;;;3.50;;
51618;SDS011;38518;53.164;5.430;2024-02-23T13:24:42;8.20;;;3.00;;
51618;SDS011;38518;53.164;5.430;2024-02-23T13:27:07;11.90;;;3.17;;
51618;SDS011;38518;53.164;5.430;2024-02-23T13:29:33;10.30;;;3.53;;
51618;SDS011;38518;53.164;5.430;2024-02-23T13:31:59;10.10;;;2.80;;
51618;SDS011;38518;53.164;5.430;2024-02-23T13:34:24;13.80;;;3.53;;
51618;SDS011;38518;53.164;5.430;2024-02-23T13:36:50;8.90;;;2.42;;
51618;SDS011;38518;53.164;5.430;2024-02-23T13:39:17;10.45;;;2.63;;
51618;SDS011;38518;53.164;5.430;2024-02-23T13:41:43;7.95;;;2.60;;
51618;SDS011;38518;53.164;5.430;2024-02-23T13:44:10;6.63;;;2.42;;
51618;SDS011;38518;53.164;5.430;2024-02-23T13:46:38;10.15;;;1.83;;
51618;SDS011;38518;53.164;5.430;2024-02-23T13:49:05;9.05;;;2.40;;
51618;SDS011;38518;53.164;5.430;2024-02-23T13:51:32;6.30;;;2.75;;
51618;SDS011;38518;53.164;5.430;2024-02-23T13:53:59;10.48;;;2.70;;
51618;SDS011;38518;53.164;5.430;2024-02-23T13:56:25;9.55;;;3.10;;
51618;SDS011;38518;53.164;5.430;2024-02-23T13:58:50;9.35;;;2.33;;
51618;SDS011;38518;53.164;5.430;2024-02-23T14:01:16;6.10;;;2.20;;
51618;SDS011;38518;53.164;5.430;2024-02-23T14:03:42;10.68;;;3.13;;
51618;SDS011;38518;53.164;5.430;2024-02-23T14:06:08;8.00;;;3.10;;
51618;SDS011;38518;53.164;5.430;2024-02-23T14:08:34;7.68;;;2.38;;
51618;SDS011;38518;53.164;5.430;2024-02-23T14:11:02;6.35;;;2.50;;
51618;SDS011;38518;53.164;5.430;2024-02-23T14:13:31;7.40;;;2.13;;
51618;SDS011;38518;53.164;5.430;2024-02-23T14:15:57;8.75;;;2.10;;
51618;SDS011;38518;53.164;5.430;2024-02-23T14:18:23;5.55;;;1.88;;
51618;SDS011;38518;53.164;5.430;2024-02-23T14:20:49;7.05;;;2.40;;
51618;SDS011;38518;53.164;5.430;2024-02-23T14:23:17;7.82;;;2.45;;
51618;SDS011;38518;53.164;5.430;2024-02-23T14:25:43;7.07;;;2.10;;
51618;SDS011;38518;53.164;5.430;2024-02-23T14:28:09;6.70;;;2.13;;
51618;SDS011;38518;53.164;5.430;2024-02-23T14:30:35;8.48;;;2.55;;
51618;SDS011;38518;53.164;5.430;2024-02-23T14:33:01;8.50;;;2.33;;
51618;SDS011;38518;53.164;5.430;2024-02-23T14:35:27;10.27;;;2.67;;